»·PEaware :: PIN8494 EDDF-VHHH

PIN8494 :: EDDF-VHHH

FLIGHT INFORMATION

Flight Status: Arrived
Operator: Unknown
More flights by this operator :: More flights under this callsign
Pilot: Stacy K. (11621)
Aircraft: AIRBUS A380-800
(A388)
More flights by this aircraft type
Origin: EDDF Frankfurt/Main
Germany
Destination: VHHH Hong Kong Chek Lap Kok
Hong Kong
More flights between these airports :: More routes between these airports
Route: KOMI3D KOMIB UL984 OKG L726 VLM DCT ENORU/K0902F330 DCT POLON Z169 GERVI P851 RAVOK Z860 TOBLO B365 GISUL G549 GOPAR G234 MGR B935 TITUR G111 DIDAL/K0889F350 G111 AST A369 KRG A368 SARIN/K0893S1070 A368 FKG W192 IPMUN G470 JTA B330 SJG W2 PA W524 Y W523 QP B330 GYA A599 POU B330 CH DCT
File this flight plan on PilotEdge
Remarks: SEL / DEFK PBN / A1B1C1D1L1O1S1S2 DOF / 170206 REG / N10145PN EET / EDUU0008 LKAA0018 EPWW0039 UMMV0111 UUWV0145 UWWW0231 USCC0334 UACC0347 UAAA0500 ZWUQ0535 ZLHW0644 ZPKM0814 ZGZU0917 VHHK1007 SEL / DEFK OPR / PIN RMK / TCAS
Altitude:
(Current/Filed)
33,000ft
Speed:
(Current/Filed)
490kts
Departed: 05-Feb-17 09:22 PM
Arrived: 06-Feb-17 07:50 AM
Distance/Time
Traveled:
4939nm/10:28
Distance/Time
To Go:
Arrived

Flight Plot

Page will automatically refresh every two minutes.

Flight plan parsing failed; only flown route is shown


Map Options




Map Legend


Flown Route
Filed Route
Departure Airport
Arrival Airport
Navaid (VOR, NDB)
Fix

Horizontal Profiles

Position Reports

Time Latitude Longitude Heading Altitude Ground
Speed
05-Feb-17 20:25 50.045836 8.570703 44 382ft 0kts
05-Feb-17 20:26 50.045836 8.570703 44 382ft 0kts
05-Feb-17 20:27 50.045836 8.570703 44 382ft 0kts
05-Feb-17 20:28 50.045836 8.570703 44 382ft 0kts
05-Feb-17 20:29 50.045836 8.570703 44 382ft 0kts
05-Feb-17 20:30 50.045836 8.570703 44 382ft 0kts
05-Feb-17 20:31 50.045836 8.570703 44 382ft 0kts
05-Feb-17 20:32 50.045836 8.570703 44 382ft 0kts
05-Feb-17 20:33 50.045836 8.570703 44 382ft 0kts
05-Feb-17 20:34 50.045836 8.570703 44 382ft 0kts
05-Feb-17 20:35 50.045836 8.570703 44 382ft 0kts
05-Feb-17 20:36 50.045836 8.570703 44 382ft 0kts
05-Feb-17 20:37 50.045836 8.570703 44 382ft 0kts
05-Feb-17 20:38 50.045836 8.570703 44 382ft 0kts
05-Feb-17 20:39 50.045836 8.570703 44 382ft 0kts
05-Feb-17 20:40 50.045836 8.570703 44 382ft 0kts
05-Feb-17 20:41 50.045836 8.570703 44 382ft 0kts
05-Feb-17 20:42 50.045836 8.570703 44 382ft 0kts
05-Feb-17 20:43 50.045836 8.570703 44 382ft 0kts
05-Feb-17 20:44 50.045836 8.570703 44 382ft 0kts
05-Feb-17 20:45 50.045836 8.570703 44 382ft 0kts
05-Feb-17 20:46 50.045836 8.570703 44 382ft 0kts
05-Feb-17 20:47 50.045836 8.570703 44 382ft 0kts
05-Feb-17 20:48 50.045836 8.570703 44 382ft 0kts
05-Feb-17 20:49 50.045836 8.570703 44 382ft 0kts
05-Feb-17 20:50 50.045836 8.570703 44 382ft 0kts
05-Feb-17 20:51 50.045836 8.570703 44 382ft 0kts
05-Feb-17 20:52 50.045836 8.570703 44 382ft 0kts
05-Feb-17 20:53 50.045836 8.570703 44 382ft 0kts
05-Feb-17 20:54 50.045836 8.570703 44 382ft 0kts
05-Feb-17 20:55 50.045836 8.570703 44 382ft 0kts
05-Feb-17 20:56 50.045836 8.570703 44 382ft 0kts
05-Feb-17 20:57 50.045836 8.570703 44 382ft 0kts
05-Feb-17 20:58 50.045836 8.570703 44 382ft 0kts
05-Feb-17 20:59 50.045836 8.570703 44 382ft 0kts
05-Feb-17 21:00 50.045836 8.570703 44 382ft 0kts
05-Feb-17 21:01 50.045836 8.570703 44 382ft 0kts
05-Feb-17 21:02 50.045836 8.570703 44 382ft 0kts
05-Feb-17 21:03 50.045836 8.570703 44 382ft 0kts
05-Feb-17 21:04 50.045836 8.570703 44 382ft 0kts
05-Feb-17 21:05 50.045836 8.570703 44 382ft 0kts
05-Feb-17 21:06 50.045836 8.570703 44 382ft 0kts
05-Feb-17 21:07 50.045467 8.570170 39 382ft 2kts
05-Feb-17 21:08 50.045031 8.569748 27 382ft 2kts
05-Feb-17 21:09 50.044693 8.569031 69 382ft 1kts
05-Feb-17 21:10 50.044681 8.568981 69 382ft 0kts
05-Feb-17 21:11 50.044681 8.568981 69 382ft 0kts
05-Feb-17 21:12 50.045045 8.568774 237 382ft 9kts
05-Feb-17 21:13 50.042805 8.561192 249 382ft 25kts
05-Feb-17 21:14 50.040274 8.550757 250 382ft 25kts
05-Feb-17 21:15 50.037697 8.541258 248 382ft 22kts
05-Feb-17 21:16 50.035910 8.533694 249 382ft 11kts
05-Feb-17 21:17 50.034661 8.528585 228 382ft 12kts
05-Feb-17 21:18 50.031313 8.528148 179 382ft 12kts
05-Feb-17 21:19 50.029542 8.532213 77 382ft 12kts
05-Feb-17 21:20 50.030809 8.536697 352 382ft 5kts
05-Feb-17 21:21 50.032697 8.535705 39 382ft 9kts
05-Feb-17 21:22 50.037910 8.556476 69 382ft 147kts
05-Feb-17 21:23 50.054376 8.626278 69 2641ft 178kts
05-Feb-17 21:24 50.069551 8.709867 86 4571ft 225kts
05-Feb-17 21:25 50.060615 8.816720 98 6858ft 264kts
05-Feb-17 21:26 50.059028 8.933095 87 9520ft 275kts
05-Feb-17 21:27 50.061184 9.058440 87 11448ft 311kts
05-Feb-17 21:28 50.063161 9.197832 88 13675ft 330kts
05-Feb-17 21:29 50.083771 9.337129 63 15903ft 342kts
05-Feb-17 21:30 50.129128 9.470474 62 17914ft 355kts
05-Feb-17 21:31 50.176953 9.608246 62 19703ft 369kts
05-Feb-17 21:32 50.200329 9.763996 90 21327ft 378kts
05-Feb-17 21:33 50.200274 9.930575 91 22829ft 390kts
05-Feb-17 21:34 50.159098 10.082806 129 24160ft 393kts
05-Feb-17 21:35 50.091087 10.217595 117 25623ft 403kts
05-Feb-17 21:36 50.075398 10.393738 93 26860ft 421kts
05-Feb-17 21:37 50.074736 10.578534 92 28104ft 431kts
05-Feb-17 21:38 50.075082 10.766824 93 29423ft 437kts
05-Feb-17 21:39 50.075118 10.958240 93 30430ft 450kts
05-Feb-17 21:40 50.074702 11.156265 93 31241ft 462kts
05-Feb-17 21:41 50.074109 11.355829 93 32487ft 462kts
05-Feb-17 21:42 50.072786 11.560356 93 32800ft 482kts
05-Feb-17 21:43 50.071241 11.769911 93 32778ft 483kts
05-Feb-17 21:44 50.069647 11.978815 93 32772ft 483kts
05-Feb-17 21:45 50.067979 12.187491 93 32796ft 483kts
05-Feb-17 21:46 50.065029 12.396206 97 32825ft 483kts
05-Feb-17 21:47 50.048122 12.603532 101 32852ft 482kts
05-Feb-17 21:48 50.028086 12.809859 101 32868ft 483kts
05-Feb-17 21:49 50.007464 13.016366 101 32881ft 485kts
05-Feb-17 21:50 49.986705 13.222597 101 32889ft 481kts
05-Feb-17 21:51 49.965962 13.428072 102 32895ft 482kts
05-Feb-17 21:52 49.944870 13.634527 102 32899ft 484kts
05-Feb-17 21:53 49.923538 13.840917 102 32900ft 486kts
05-Feb-17 21:54 49.900339 14.046870 106 32902ft 483kts
05-Feb-17 21:55 49.864269 14.246793 110 32904ft 482kts
05-Feb-17 21:56 49.825776 14.445148 110 32917ft 481kts
05-Feb-17 21:57 49.786825 14.643750 110 32920ft 481kts
05-Feb-17 21:58 49.747948 14.841647 110 32915ft 481kts
05-Feb-17 21:59 49.721665 15.043358 82 32904ft 492kts
05-Feb-17 22:00 49.785413 15.229894 53 32908ft 496kts
05-Feb-17 22:01 49.869044 15.399495 50 32905ft 496kts
05-Feb-17 22:02 49.953615 15.569772 50 32906ft 499kts
05-Feb-17 22:03 50.039883 15.745496 50 32909ft 524kts
05-Feb-17 22:04 50.128277 15.927761 51 32906ft 528kts
05-Feb-17 22:05 50.216182 16.110577 51 32912ft 527kts
05-Feb-17 22:06 50.303931 16.293853 51 32930ft 527kts
05-Feb-17 22:07 50.391109 16.478018 51 32949ft 527kts
05-Feb-17 22:08 50.478388 16.663448 51 32969ft 526kts
05-Feb-17 22:09 50.565233 16.848924 51 32987ft 528kts
05-Feb-17 22:10 50.651729 17.035237 51 32996ft 528kts
05-Feb-17 22:11 50.737833 17.222222 51 33003ft 527kts
05-Feb-17 22:12 50.823823 17.410612 51 33008ft 527kts
05-Feb-17 22:13 50.909342 17.599238 51 33008ft 528kts
05-Feb-17 22:14 50.994498 17.788407 51 33006ft 527kts
05-Feb-17 22:15 51.079142 17.978101 51 33002ft 527kts
05-Feb-17 22:16 51.162971 18.168295 51 33012ft 525kts
05-Feb-17 22:17 51.246353 18.360003 51 33012ft 525kts
05-Feb-17 22:18 51.329332 18.551468 51 33014ft 524kts
05-Feb-17 22:19 51.412142 18.743082 51 33011ft 523kts
05-Feb-17 22:20 51.494702 18.935058 51 33017ft 523kts
05-Feb-17 22:21 51.576941 19.127435 51 33021ft 523kts
05-Feb-17 22:22 51.659105 19.320629 51 33021ft 515kts
05-Feb-17 22:23 51.739653 19.511476 51 33025ft 522kts
05-Feb-17 22:24 51.810619 19.719351 68 33033ft 543kts
05-Feb-17 22:25 51.848047 19.955002 73 32995ft 529kts
05-Feb-17 22:26 51.880331 20.182774 74 33041ft 522kts
05-Feb-17 22:27 51.912596 20.411072 74 33051ft 522kts
05-Feb-17 22:28 51.945242 20.642335 74 33066ft 529kts
05-Feb-17 22:29 51.978508 20.877725 74 33077ft 542kts
05-Feb-17 22:30 52.011685 21.114155 75 33089ft 532kts
05-Feb-17 22:31 52.043354 21.346370 74 33082ft 529kts
05-Feb-17 22:32 52.074757 21.580848 74 33073ft 528kts
05-Feb-17 22:33 52.105848 21.814740 75 33063ft 535kts
05-Feb-17 22:34 52.136286 22.050034 75 33039ft 527kts
05-Feb-17 22:35 52.162490 22.284303 79 33052ft 525kts
05-Feb-17 22:36 52.180384 22.519086 80 33053ft 525kts
05-Feb-17 22:37 52.197347 22.756063 81 33055ft 525kts
05-Feb-17 22:38 52.213517 22.993520 81 33057ft 525kts
05-Feb-17 22:39 52.227276 23.230039 86 33057ft 525kts
05-Feb-17 22:40 52.226118 23.468305 90 33056ft 525kts
05-Feb-17 22:41 52.222042 23.706270 90 33054ft 526kts
05-Feb-17 22:42 52.217423 23.944307 90 33054ft 526kts
05-Feb-17 22:43 52.225379 24.181203 74 33057ft 520kts
05-Feb-17 22:44 52.263092 24.408281 71 33058ft 519kts
05-Feb-17 22:45 52.301867 24.634766 72 33062ft 518kts
05-Feb-17 22:46 52.339321 24.861172 72 33067ft 516kts
05-Feb-17 22:47 52.375810 25.087467 73 33071ft 514kts
05-Feb-17 22:48 52.411042 25.314498 73 33075ft 513kts
05-Feb-17 22:49 52.445937 25.540582 73 33078ft 511kts
05-Feb-17 22:50 52.480157 25.766367 73 33083ft 512kts
05-Feb-17 22:51 52.513620 25.992982 74 33087ft 513kts
05-Feb-17 22:52 52.546138 26.217525 74 33102ft 504kts
05-Feb-17 22:53 52.578511 26.442951 74 33111ft 511kts
05-Feb-17 22:54 52.610710 26.670192 74 33114ft 510kts
05-Feb-17 22:55 52.642731 26.897154 74 33119ft 510kts
05-Feb-17 22:56 52.674478 27.124239 75 33127ft 509kts
05-Feb-17 22:57 52.700560 27.353630 80 33133ft 509kts
05-Feb-17 22:58 52.719579 27.585502 80 33144ft 509kts
05-Feb-17 22:59 52.737638 27.816695 81 33156ft 508kts
05-Feb-17 23:00 52.755514 28.047843 81 33174ft 508kts
05-Feb-17 23:01 52.773331 28.279233 81 33204ft 508kts
05-Feb-17 23:02 52.791042 28.510878 81 33210ft 509kts
05-Feb-17 23:03 52.808623 28.742789 81 33214ft 510kts
05-Feb-17 23:04 52.825419 28.976267 81 33220ft 510kts
05-Feb-17 23:05 52.841247 29.209193 82 33229ft 510kts
05-Feb-17 23:06 52.856654 29.442465 82 33234ft 511kts
05-Feb-17 23:07 52.871544 29.675848 82 33235ft 511kts
05-Feb-17 23:08 52.886226 29.909738 82 33236ft 511kts
05-Feb-17 23:09 52.900797 30.144615 82 33239ft 512kts
05-Feb-17 23:10 52.915196 30.378998 82 33240ft 512kts
05-Feb-17 23:11 52.929142 30.614475 83 33236ft 513kts
05-Feb-17 23:12 52.941966 30.849909 83 33235ft 513kts
05-Feb-17 23:13 52.954323 31.085641 83 33236ft 514kts
05-Feb-17 23:14 52.966204 31.321961 84 33238ft 515kts
05-Feb-17 23:15 52.977801 31.559083 84 33240ft 516kts
05-Feb-17 23:16 52.988973 31.796132 84 33247ft 516kts
05-Feb-17 23:17 52.999821 32.034157 84 33250ft 517kts
05-Feb-17 23:18 53.010347 32.272204 84 33252ft 518kts
05-Feb-17 23:19 53.027868 32.509114 77 33257ft 517kts
05-Feb-17 23:20 53.055658 32.743259 76 33256ft 517kts
05-Feb-17 23:21 53.083124 32.978048 77 33256ft 518kts
05-Feb-17 23:22 53.109533 33.214468 77 33258ft 519kts
05-Feb-17 23:23 53.135540 33.450640 77 33259ft 519kts
05-Feb-17 23:24 53.161116 33.687438 77 33259ft 520kts
05-Feb-17 23:25 53.186199 33.924754 77 33260ft 521kts
05-Feb-17 23:26 53.211237 34.162672 76 33260ft 522kts
05-Feb-17 23:27 53.242401 34.399640 74 33260ft 521kts
05-Feb-17 23:28 53.273689 34.635962 74 33261ft 522kts
05-Feb-17 23:29 53.304750 34.872628 74 33261ft 522kts
05-Feb-17 23:30 53.335489 35.109897 74 33264ft 522kts
05-Feb-17 23:31 53.366032 35.347754 75 33268ft 524kts
05-Feb-17 23:32 53.396007 35.587139 75 33271ft 525kts
05-Feb-17 23:33 53.425155 35.826445 75 33275ft 525kts
05-Feb-17 23:34 53.453775 36.066232 75 33279ft 525kts
05-Feb-17 23:35 53.482232 36.306635 75 33284ft 526kts
05-Feb-17 23:36 53.511548 36.546883 75 33292ft 526kts
05-Feb-17 23:37 53.540713 36.788172 75 33306ft 526kts
05-Feb-17 23:38 53.569721 37.029224 75 33310ft 526kts
05-Feb-17 23:39 53.599764 37.269823 75 33307ft 526kts
05-Feb-17 23:40 53.628998 37.510894 75 33339ft 526kts
05-Feb-17 23:41 53.657592 37.752228 75 33345ft 525kts
05-Feb-17 23:42 53.687634 37.992967 75 33330ft 525kts
05-Feb-17 23:43 53.716216 38.235553 75 33322ft 526kts
05-Feb-17 23:44 53.742597 38.478523 79 33322ft 528kts
05-Feb-17 23:45 53.747629 38.685354 87 33325ft 531kts
05-Feb-17 23:46 53.746817 38.976055 88 33341ft 532kts
05-Feb-17 23:47 53.743941 39.225748 89 33339ft 532kts
05-Feb-17 23:48 53.740627 39.434373 89 33343ft 531kts
05-Feb-17 23:49 53.736023 39.683305 89 33340ft 530kts
05-Feb-17 23:50 53.730062 39.973382 90 33331ft 530kts
05-Feb-17 23:51 53.724507 40.221671 90 33327ft 530kts
05-Feb-17 23:52 53.718659 40.470509 90 33324ft 532kts
05-Feb-17 23:53 53.712823 40.720479 90 33321ft 532kts
05-Feb-17 23:54 53.707129 40.928529 91 33318ft 533kts
05-Feb-17 23:55 53.699335 41.178306 91 33315ft 533kts
05-Feb-17 23:56 53.690004 41.427682 92 33312ft 533kts
05-Feb-17 23:57 53.680256 41.677069 91 33309ft 533kts
05-Feb-17 23:58 53.673355 41.927037 90 33305ft 532kts
05-Feb-17 23:59 53.665848 42.176291 91 33302ft 533kts
06-Feb-17 00:00 53.657648 42.425354 91 33298ft 533kts
06-Feb-17 00:01 53.649543 42.674908 91 33294ft 534kts
06-Feb-17 00:02 53.641925 42.924825 91 33290ft 535kts
06-Feb-17 00:03 53.633921 43.174993 91 33285ft 535kts
06-Feb-17 00:04 53.625929 43.426061 91 33280ft 536kts
06-Feb-17 00:05 53.617134 43.676149 92 33274ft 535kts
06-Feb-17 00:06 53.607234 43.925754 92 33239ft 534kts
06-Feb-17 00:07 53.597794 44.175275 91 33229ft 534kts
06-Feb-17 00:08 53.591142 44.425198 91 33215ft 535kts
06-Feb-17 00:09 53.583430 44.676252 92 33206ft 536kts
06-Feb-17 00:10 53.575655 44.926876 92 33202ft 537kts
06-Feb-17 00:11 53.567400 45.177660 92 33199ft 538kts
06-Feb-17 00:12 53.559608 45.428557 92 33196ft 538kts
06-Feb-17 00:13 53.551869 45.679083 92 33193ft 537kts
06-Feb-17 00:14 53.542901 45.929947 93 33190ft 536kts
06-Feb-17 00:15 53.533502 46.179901 92 33168ft 536kts
06-Feb-17 00:16 53.525823 46.429893 92 33177ft 537kts
06-Feb-17 00:17 53.517749 46.680020 93 33175ft 537kts
06-Feb-17 00:18 53.508727 46.930373 93 33173ft 537kts
06-Feb-17 00:19 53.499709 47.181439 93 33171ft 537kts
06-Feb-17 00:20 53.489448 47.431391 94 33163ft 536kts
06-Feb-17 00:21 53.479365 47.680736 88 33155ft 536kts
06-Feb-17 00:22 53.502988 47.926672 76 33160ft 534kts
06-Feb-17 00:23 53.534958 48.170311 76 33138ft 534kts
06-Feb-17 00:24 53.565557 48.414463 77 33130ft 534kts
06-Feb-17 00:25 53.594850 48.660472 77 33125ft 535kts
06-Feb-17 00:26 53.623947 48.906306 77 33116ft 536kts
06-Feb-17 00:27 53.652291 49.152698 78 33106ft 536kts
06-Feb-17 00:28 53.679461 49.399321 78 33087ft 535kts
06-Feb-17 00:29 53.710595 49.643958 76 33073ft 534kts
06-Feb-17 00:30 53.742210 49.889177 76 33065ft 532kts
06-Feb-17 00:31 53.773547 50.133177 76 33061ft 532kts
06-Feb-17 00:32 53.804586 50.377483 77 33061ft 533kts
06-Feb-17 00:33 53.833995 50.623265 78 33062ft 534kts
06-Feb-17 00:34 53.863005 50.869860 78 33064ft 535kts
06-Feb-17 00:35 53.892094 51.117715 78 33064ft 535kts
06-Feb-17 00:36 53.907442 51.368085 87 33064ft 534kts
06-Feb-17 00:37 53.914326 51.618839 87 33059ft 532kts
06-Feb-17 00:38 53.921071 51.869451 87 33055ft 532kts
06-Feb-17 00:39 53.927285 52.119738 87 33049ft 532kts
06-Feb-17 00:40 53.933051 52.370976 88 32999ft 532kts
06-Feb-17 00:41 53.938453 52.621891 88 32990ft 533kts
06-Feb-17 00:42 53.943946 52.873229 88 32983ft 535kts
06-Feb-17 00:43 53.948914 53.125325 88 32975ft 535kts
06-Feb-17 00:44 53.952641 53.377363 89 32968ft 534kts
06-Feb-17 00:45 53.956125 53.629013 89 32960ft 533kts
06-Feb-17 00:46 53.959650 53.880967 89 32941ft 532kts
06-Feb-17 00:47 53.962730 54.131798 90 32934ft 532kts
06-Feb-17 00:48 53.964475 54.382781 90 32927ft 532kts
06-Feb-17 00:49 53.965711 54.634189 90 32920ft 534kts
06-Feb-17 00:50 53.956223 54.884700 102 32916ft 532kts
06-Feb-17 00:51 53.925346 55.130991 105 32910ft 532kts
06-Feb-17 00:52 53.892974 55.375304 105 32908ft 531kts
06-Feb-17 00:53 53.860613 55.618997 105 32908ft 530kts
06-Feb-17 00:54 53.828177 55.861670 105 32909ft 528kts
06-Feb-17 00:55 53.795799 56.103817 105 32915ft 528kts
06-Feb-17 00:56 53.763254 56.346820 105 32920ft 529kts
06-Feb-17 00:57 53.729374 56.588616 106 32926ft 530kts
06-Feb-17 00:58 53.694742 56.830451 106 32934ft 531kts
06-Feb-17 00:59 53.659966 57.072698 106 32942ft 532kts
06-Feb-17 01:00 53.624966 57.314819 106 32949ft 532kts
06-Feb-17 01:01 53.588731 57.555674 107 32955ft 531kts
06-Feb-17 01:02 53.552155 57.796657 107 32959ft 530kts
06-Feb-17 01:03 53.515870 58.036346 107 32963ft 529kts
06-Feb-17 01:04 53.479558 58.275798 107 32965ft 530kts
06-Feb-17 01:05 53.442502 58.515184 107 32965ft 531kts
06-Feb-17 01:06 53.406476 58.755258 100 32963ft 535kts
06-Feb-17 01:07 53.402986 59.006176 90 32966ft 539kts
06-Feb-17 01:08 53.405961 59.257197 90 32968ft 539kts
06-Feb-17 01:09 53.407515 59.508163 91 32975ft 539kts
06-Feb-17 01:10 53.408452 59.758995 91 32983ft 539kts
06-Feb-17 01:11 53.408558 60.009849 92 32998ft 538kts
06-Feb-17 01:12 53.407560 60.261422 92 33022ft 539kts
06-Feb-17 01:13 53.406457 60.512203 92 33043ft 539kts
06-Feb-17 01:14 53.405303 60.762940 92 33064ft 539kts
06-Feb-17 01:15 53.403239 61.013830 93 33085ft 539kts
06-Feb-17 01:16 53.394132 61.263534 99 33095ft 536kts
06-Feb-17 01:17 53.373897 61.510165 100 33113ft 535kts
06-Feb-17 01:18 53.352673 61.757290 101 33184ft 535kts
06-Feb-17 01:19 53.331430 62.003701 101 33194ft 536kts
06-Feb-17 01:20 53.310157 62.249929 101 33203ft 535kts
06-Feb-17 01:21 53.288651 62.495800 101 33212ft 536kts
06-Feb-17 01:22 53.265785 62.741725 101 33219ft 536kts
06-Feb-17 01:23 53.242360 62.988162 101 33225ft 536kts
06-Feb-17 01:24 53.218618 63.233871 101 33228ft 537kts
06-Feb-17 01:25 53.194744 63.479720 101 33230ft 538kts
06-Feb-17 01:26 53.154811 63.717317 114 33232ft 531kts
06-Feb-17 01:27 53.101924 63.946725 114 33231ft 531kts
06-Feb-17 01:28 53.048632 64.175967 115 33231ft 530kts
06-Feb-17 01:29 52.995129 64.403834 115 33232ft 530kts
06-Feb-17 01:30 52.941306 64.630992 115 33234ft 530kts
06-Feb-17 01:31 52.887325 64.857430 115 33237ft 529kts
06-Feb-17 01:32 52.833348 65.083311 115 33241ft 528kts
06-Feb-17 01:33 52.778669 65.308306 116 33259ft 527kts
06-Feb-17 01:34 52.722749 65.532452 116 33286ft 527kts
06-Feb-17 01:35 52.667483 65.755316 116 33301ft 526kts
06-Feb-17 01:36 52.612272 65.978537 116 33317ft 527kts
06-Feb-17 01:37 52.556204 66.200600 116 33333ft 527kts
06-Feb-17 01:38 52.499775 66.422309 116 33365ft 526kts
06-Feb-17 01:39 52.443297 66.644344 116 33387ft 526kts
06-Feb-17 01:40 52.386247 66.864565 117 33402ft 526kts
06-Feb-17 01:41 52.327879 67.083530 117 33415ft 525kts
06-Feb-17 01:42 52.268540 67.301092 117 33427ft 525kts
06-Feb-17 01:43 52.208859 67.518115 117 33437ft 524kts
06-Feb-17 01:44 52.149075 67.735108 117 33447ft 523kts
06-Feb-17 01:45 52.089552 67.950951 117 33455ft 523kts
06-Feb-17 01:46 52.029428 68.165808 118 33447ft 523kts
06-Feb-17 01:47 51.968003 68.379297 119 33454ft 522kts
06-Feb-17 01:48 51.903622 68.589908 120 33463ft 522kts
06-Feb-17 01:49 51.838667 68.799424 120 33471ft 521kts
06-Feb-17 01:50 51.773359 69.009220 120 33481ft 522kts
06-Feb-17 01:51 51.708148 69.218336 120 33495ft 522kts
06-Feb-17 01:52 51.642411 69.426635 121 33510ft 522kts
06-Feb-17 01:53 51.575514 69.634018 121 33527ft 522kts
06-Feb-17 01:54 51.508648 69.841010 121 33545ft 523kts
06-Feb-17 01:55 51.442799 70.049624 120 33555ft 523kts
06-Feb-17 01:56 51.377948 70.257675 119 33563ft 523kts
06-Feb-17 01:57 51.313177 70.465758 119 33570ft 523kts
06-Feb-17 01:58 51.247557 70.672830 120 33576ft 523kts
06-Feb-17 01:59 51.181066 70.879005 120 33580ft 523kts
06-Feb-17 02:00 51.114121 71.085605 120 33583ft 523kts
06-Feb-17 02:01 51.047482 71.291133 120 33584ft 524kts
06-Feb-17 02:02 50.971581 71.485787 137 33587ft 513kts
06-Feb-17 02:03 50.869396 71.641734 142 33584ft 510kts
06-Feb-17 02:04 50.765696 71.794855 141 33584ft 511kts
06-Feb-17 02:05 50.662537 71.948587 141 33583ft 511kts
06-Feb-17 02:06 50.558844 72.102720 141 33583ft 512kts
06-Feb-17 02:07 50.455155 72.255607 141 33583ft 512kts
06-Feb-17 02:08 50.351224 72.407503 141 33582ft 511kts
06-Feb-17 02:09 50.247052 72.559106 141 33583ft 512kts
06-Feb-17 02:10 50.142577 72.709867 141 33585ft 512kts
06-Feb-17 02:11 50.037558 72.860784 141 33587ft 513kts
06-Feb-17 02:12 49.932991 73.011275 141 33586ft 513kts
06-Feb-17 02:13 49.828000 73.161085 141 33585ft 513kts
06-Feb-17 02:14 49.722653 73.310272 140 33583ft 515kts
06-Feb-17 02:15 49.654401 73.506072 110 33589ft 528kts
06-Feb-17 02:16 49.608977 73.722029 108 33586ft 528kts
06-Feb-17 02:17 49.563648 73.937191 109 33587ft 529kts
06-Feb-17 02:18 49.517984 74.152121 108 33586ft 528kts
06-Feb-17 02:19 49.471449 74.366230 109 33593ft 528kts
06-Feb-17 02:20 49.424266 74.579334 109 33596ft 527kts
06-Feb-17 02:21 49.376519 74.792400 109 33601ft 526kts
06-Feb-17 02:22 49.328581 75.004032 109 33604ft 526kts
06-Feb-17 02:23 49.280414 75.215568 109 33610ft 526kts
06-Feb-17 02:24 49.232026 75.426592 109 33614ft 525kts
06-Feb-17 02:25 49.183654 75.637056 109 33618ft 525kts
06-Feb-17 02:26 49.135251 75.847482 109 33622ft 525kts
06-Feb-17 02:27 49.085227 76.057531 110 33624ft 525kts
06-Feb-17 02:28 49.034557 76.265966 110 33627ft 524kts
06-Feb-17 02:29 48.983849 76.473755 110 33629ft 524kts
06-Feb-17 02:30 48.933069 76.681035 110 33630ft 524kts
06-Feb-17 02:31 48.882153 76.888892 110 33631ft 523kts
06-Feb-17 02:32 48.831459 77.095631 110 33651ft 523kts
06-Feb-17 02:33 48.779898 77.301449 110 33707ft 523kts
06-Feb-17 02:34 48.727577 77.506607 111 33710ft 522kts
06-Feb-17 02:35 48.675100 77.710922 111 33712ft 521kts
06-Feb-17 02:36 48.621717 77.914354 111 33714ft 520kts
06-Feb-17 02:37 48.567595 78.117018 111 33717ft 519kts
06-Feb-17 02:38 48.513460 78.318542 111 33719ft 519kts
06-Feb-17 02:39 48.459302 78.519817 111 33722ft 519kts
06-Feb-17 02:40 48.405089 78.721113 112 33725ft 519kts
06-Feb-17 02:41 48.350006 78.921593 111 33727ft 519kts
06-Feb-17 02:42 48.295776 79.123175 111 33730ft 519kts
06-Feb-17 02:43 48.242186 79.323915 111 33733ft 518kts
06-Feb-17 02:44 48.188260 79.523661 112 33735ft 517kts
06-Feb-17 02:45 48.133455 79.722360 112 33737ft 516kts
06-Feb-17 02:46 48.078598 79.920324 112 33727ft 515kts
06-Feb-17 02:47 48.023813 80.117853 112 33730ft 515kts
06-Feb-17 02:48 47.968890 80.315938 112 33732ft 515kts
06-Feb-17 02:49 47.907293 80.508289 121 33736ft 515kts
06-Feb-17 02:50 47.830323 80.688079 123 33736ft 515kts
06-Feb-17 02:51 47.751990 80.865838 123 33737ft 514kts
06-Feb-17 02:52 47.673754 81.043478 123 33735ft 515kts
06-Feb-17 02:53 47.595433 81.221800 123 33723ft 515kts
06-Feb-17 02:54 47.518519 81.400812 123 33722ft 516kts
06-Feb-17 02:55 47.441654 81.579621 123 33720ft 516kts
06-Feb-17 02:56 47.364287 81.757694 123 33719ft 516kts
06-Feb-17 02:57 47.286988 81.935506 123 33717ft 516kts
06-Feb-17 02:58 47.209669 82.113691 123 33716ft 515kts
06-Feb-17 02:59 47.131730 82.290267 124 33714ft 516kts
06-Feb-17 03:00 47.053544 82.466365 124 33712ft 516kts
06-Feb-17 03:01 46.975592 82.642486 124 33720ft 516kts
06-Feb-17 03:02 46.896972 82.817518 124 33718ft 515kts
06-Feb-17 03:03 46.819647 82.993701 123 33717ft 515kts
06-Feb-17 03:04 46.743183 83.171013 123 33715ft 515kts
06-Feb-17 03:05 46.666073 83.346590 125 33713ft 514kts
06-Feb-17 03:06 46.583247 83.515308 127 33712ft 513kts
06-Feb-17 03:07 46.498668 83.681727 128 33703ft 512kts
06-Feb-17 03:08 46.413995 83.847729 128 33701ft 512kts
06-Feb-17 03:09 46.329351 84.014262 128 33700ft 512kts
06-Feb-17 03:10 46.244561 84.179433 129 33699ft 511kts
06-Feb-17 03:11 46.159194 84.343542 129 33698ft 512kts
06-Feb-17 03:12 46.073658 84.507526 129 33698ft 512kts
06-Feb-17 03:13 45.988296 84.671478 129 33697ft 513kts
06-Feb-17 03:14 45.902218 84.835118 130 33697ft 512kts
06-Feb-17 03:15 45.816601 84.997894 130 33697ft 511kts
06-Feb-17 03:16 45.730206 85.159523 131 33697ft 512kts
06-Feb-17 03:17 45.643658 85.321027 130 33697ft 512kts
06-Feb-17 03:18 45.557276 85.482469 131 33697ft 512kts
06-Feb-17 03:19 45.469983 85.643303 131 33697ft 512kts
06-Feb-17 03:20 45.382495 85.803061 131 33698ft 512kts
06-Feb-17 03:21 45.295257 85.962592 131 33698ft 511kts
06-Feb-17 03:22 45.207886 86.121697 132 33702ft 511kts
06-Feb-17 03:23 45.120339 86.280324 132 33702ft 511kts
06-Feb-17 03:24 45.032441 86.438008 133 33703ft 510kts
06-Feb-17 03:25 44.944119 86.595360 133 33702ft 509kts
06-Feb-17 03:26 44.856330 86.752042 133 33702ft 509kts
06-Feb-17 03:27 44.767805 86.907409 134 33703ft 509kts
06-Feb-17 03:28 44.679456 87.062546 133 33702ft 508kts
06-Feb-17 03:29 44.591259 87.217232 134 33703ft 508kts
06-Feb-17 03:30 44.503911 87.373245 133 33703ft 508kts
06-Feb-17 03:31 44.418655 87.530689 133 33703ft 507kts
06-Feb-17 03:32 44.333243 87.687113 133 33703ft 507kts
06-Feb-17 03:33 44.248516 87.843629 133 33703ft 506kts
06-Feb-17 03:34 44.165529 88.002042 129 33703ft 510kts
06-Feb-17 03:35 44.092374 88.172507 126 33703ft 513kts
06-Feb-17 03:36 44.020735 88.343664 126 33703ft 512kts
06-Feb-17 03:37 43.948403 88.513117 127 33703ft 510kts
06-Feb-17 03:38 43.875861 88.681694 127 33702ft 509kts
06-Feb-17 03:39 43.803794 88.849573 127 33698ft 506kts
06-Feb-17 03:40 43.731958 89.016726 127 33697ft 505kts
06-Feb-17 03:41 43.658998 89.183049 127 33696ft 505kts
06-Feb-17 03:42 43.586196 89.348293 128 33694ft 505kts
06-Feb-17 03:43 43.513577 89.513382 127 33693ft 505kts
06-Feb-17 03:44 43.440894 89.678574 128 33690ft 505kts
06-Feb-17 03:45 43.367616 89.842428 128 33688ft 503kts
06-Feb-17 03:46 43.293777 90.006210 128 33686ft 503kts
06-Feb-17 03:47 43.220363 90.168606 128 33683ft 501kts
06-Feb-17 03:48 43.146963 90.330218 128 33681ft 500kts
06-Feb-17 03:49 43.074029 90.491908 128 33678ft 499kts
06-Feb-17 03:50 43.001007 90.652665 128 33675ft 498kts
06-Feb-17 03:51 42.927565 90.813198 128 33672ft 497kts
06-Feb-17 03:52 42.854218 90.972681 127 33669ft 497kts
06-Feb-17 03:53 42.780722 91.131700 127 33665ft 496kts
06-Feb-17 03:54 42.707161 91.290235 128 33661ft 495kts
06-Feb-17 03:55 42.633478 91.448279 127 33652ft 496kts
06-Feb-17 03:56 42.559480 91.606140 127 33642ft 494kts
06-Feb-17 03:57 42.478114 91.753871 138 33639ft 485kts
06-Feb-17 03:58 42.383957 91.884084 139 33631ft 484kts
06-Feb-17 03:59 42.289631 92.013221 139 33625ft 484kts
06-Feb-17 04:00 42.195419 92.142641 139 33619ft 484kts
06-Feb-17 04:01 42.101028 92.271496 139 33612ft 483kts
06-Feb-17 04:02 42.006157 92.400454 139 33598ft 483kts
06-Feb-17 04:03 41.927493 92.507442 139 33590ft 484kts
06-Feb-17 04:04 41.816860 92.656736 139 33581ft 485kts
06-Feb-17 04:05 41.721606 92.784365 139 33562ft 485kts
06-Feb-17 04:06 41.626330 92.911875 139 33536ft 485kts
06-Feb-17 04:07 41.530317 93.039521 139 33527ft 486kts
06-Feb-17 04:08 41.434535 93.166498 139 33519ft 486kts
06-Feb-17 04:09 41.338803 93.293328 139 33509ft 486kts
06-Feb-17 04:10 41.242974 93.420100 139 33500ft 486kts
06-Feb-17 04:11 41.163151 93.525496 139 33493ft 485kts
06-Feb-17 04:12 41.066620 93.652060 139 33483ft 486kts
06-Feb-17 04:13 40.970028 93.777542 139 33475ft 488kts
06-Feb-17 04:14 40.857807 93.925213 138 33464ft 489kts
06-Feb-17 04:15 40.778139 94.031262 138 33456ft 489kts
06-Feb-17 04:16 40.681339 94.159014 139 33470ft 497kts
06-Feb-17 04:17 40.583514 94.287485 139 33460ft 498kts
06-Feb-17 04:18 40.485140 94.416363 139 33451ft 498kts
06-Feb-17 04:19 40.387122 94.544430 139 33441ft 498kts
06-Feb-17 04:20 40.289111 94.672437 139 33432ft 497kts
06-Feb-17 04:21 40.191291 94.800263 138 33422ft 498kts
06-Feb-17 04:22 40.115283 94.953272 121 33415ft 507kts
06-Feb-17 04:23 40.050418 95.117370 120 33391ft 507kts
06-Feb-17 04:24 39.985579 95.280704 120 33379ft 509kts
06-Feb-17 04:25 39.919646 95.444408 121 33371ft 511kts
06-Feb-17 04:26 39.853025 95.607187 121 33361ft 510kts
06-Feb-17 04:27 39.786496 95.769472 121 33353ft 509kts
06-Feb-17 04:28 39.719892 95.931521 121 33344ft 508kts
06-Feb-17 04:29 39.653195 96.094044 121 33336ft 509kts
06-Feb-17 04:30 39.586333 96.255658 121 33328ft 510kts
06-Feb-17 04:31 39.520496 96.418385 121 33319ft 511kts
06-Feb-17 04:32 39.454476 96.581145 121 33311ft 512kts
06-Feb-17 04:33 39.388251 96.744574 121 33303ft 512kts
06-Feb-17 04:34 39.322344 96.907763 121 33296ft 513kts
06-Feb-17 04:35 39.255968 97.070505 121 33288ft 513kts
06-Feb-17 04:36 39.188693 97.232744 122 33285ft 514kts
06-Feb-17 04:37 39.121224 97.394732 122 33278ft 514kts
06-Feb-17 04:38 39.053728 97.556531 122 33271ft 513kts
06-Feb-17 04:39 38.986060 97.718916 121 33264ft 515kts
06-Feb-17 04:40 38.920736 97.882702 120 33257ft 515kts
06-Feb-17 04:41 38.855580 98.046434 120 33251ft 515kts
06-Feb-17 04:42 38.790310 98.209896 120 33244ft 516kts
06-Feb-17 04:43 38.725033 98.373281 120 33238ft 516kts
06-Feb-17 04:44 38.659613 98.537022 121 33232ft 516kts
06-Feb-17 04:45 38.593582 98.699460 121 33227ft 515kts
06-Feb-17 04:46 38.527362 98.861318 121 33221ft 514kts
06-Feb-17 04:47 38.460877 99.022563 121 33216ft 513kts
06-Feb-17 04:48 38.394270 99.183428 121 33210ft 513kts
06-Feb-17 04:49 38.327453 99.344507 121 33205ft 512kts
06-Feb-17 04:50 38.260771 99.504726 121 33201ft 513kts
06-Feb-17 04:51 38.194079 99.664827 121 33196ft 512kts
06-Feb-17 04:52 38.127388 99.824717 121 33191ft 513kts
06-Feb-17 04:53 38.060169 99.984126 121 33187ft 513kts
06-Feb-17 04:54 37.992451 100.142791 122 33182ft 512kts
06-Feb-17 04:55 37.924154 100.301902 122 33169ft 513kts
06-Feb-17 04:56 37.855827 100.460466 122 33166ft 514kts
06-Feb-17 04:57 37.787218 100.619183 122 33164ft 515kts
06-Feb-17 04:58 37.718239 100.777952 122 33161ft 517kts
06-Feb-17 04:59 37.648849 100.937205 122 33155ft 519kts
06-Feb-17 05:00 37.579961 101.097905 121 33156ft 521kts
06-Feb-17 05:01 37.512079 101.258708 121 33153ft 520kts
06-Feb-17 05:02 37.444344 101.419313 120 33153ft 521kts
06-Feb-17 05:03 37.380335 101.582606 108 33151ft 527kts
06-Feb-17 05:04 37.361104 101.766595 95 33147ft 531kts
06-Feb-17 05:05 37.350481 101.951709 95 33149ft 529kts
06-Feb-17 05:06 37.339398 102.136053 95 33148ft 530kts
06-Feb-17 05:07 37.327759 102.319866 96 33138ft 528kts
06-Feb-17 05:08 37.315004 102.504186 96 33134ft 527kts
06-Feb-17 05:09 37.301959 102.688250 96 33120ft 534kts
06-Feb-17 05:10 37.289085 102.872686 96 33132ft 526kts
06-Feb-17 05:11 37.276155 103.058588 97 33114ft 535kts
06-Feb-17 05:12 37.262371 103.243227 97 33136ft 530kts
06-Feb-17 05:13 37.247971 103.428680 97 33143ft 538kts
06-Feb-17 05:14 37.233555 103.613175 97 33056ft 523kts
06-Feb-17 05:15 37.219611 103.795490 97 33134ft 532kts
06-Feb-17 05:16 37.200458 103.982068 112 33115ft 539kts
06-Feb-17 05:17 37.100790 104.096568 172 33148ft 484kts
06-Feb-17 05:18 36.967041 104.102410 185 33142ft 481kts
06-Feb-17 05:19 36.834008 104.102460 184 33136ft 474kts
06-Feb-17 05:20 36.701309 104.106135 183 33133ft 485kts
06-Feb-17 05:21 36.566513 104.112032 183 33116ft 480kts
06-Feb-17 05:22 36.433254 104.117953 184 33138ft 479kts
06-Feb-17 05:23 36.299283 104.124020 183 33137ft 485kts
06-Feb-17 05:24 36.164498 104.131346 183 33117ft 488kts
06-Feb-17 05:25 36.029780 104.138270 183 33125ft 483kts
06-Feb-17 05:26 35.894436 104.145524 183 33133ft 486kts
06-Feb-17 05:27 35.758591 104.152567 183 33127ft 491kts
06-Feb-17 05:28 35.623288 104.159139 184 33112ft 482kts
06-Feb-17 05:29 35.488482 104.165582 184 33123ft 483kts
06-Feb-17 05:30 35.354174 104.172133 184 33139ft 487kts
06-Feb-17 05:31 35.218806 104.178815 184 33137ft 487kts
06-Feb-17 05:32 35.082195 104.185813 184 33133ft 487kts
06-Feb-17 05:33 34.945927 104.193106 184 33115ft 494kts
06-Feb-17 05:34 34.813609 104.200098 185 33108ft 469kts
06-Feb-17 05:35 34.679808 104.206390 185 33110ft 488kts
06-Feb-17 05:36 34.544777 104.213068 185 33140ft 492kts
06-Feb-17 05:37 34.407682 104.220114 185 33087ft 482kts
06-Feb-17 05:38 34.273539 104.226652 185 33059ft 492kts
06-Feb-17 05:39 34.139451 104.233614 186 33060ft 470kts
06-Feb-17 05:40 34.005808 104.239732 185 33102ft 490kts
06-Feb-17 05:41 33.867107 104.246744 185 33103ft 505kts
06-Feb-17 05:42 33.726851 104.253974 185 33043ft 490kts
06-Feb-17 05:43 33.592017 104.260321 186 33079ft 487kts
06-Feb-17 05:44 33.453338 104.266892 185 33090ft 507kts
06-Feb-17 05:45 33.316191 104.273897 186 33034ft 484kts
06-Feb-17 05:46 33.183869 104.280377 186 33083ft 472kts
06-Feb-17 05:47 33.052718 104.286950 186 33047ft 476kts
06-Feb-17 05:48 32.915984 104.293263 186 33070ft 503kts
06-Feb-17 05:49 32.778018 104.300306 187 33033ft 475kts
06-Feb-17 05:50 32.644428 104.307151 186 33066ft 486kts
06-Feb-17 05:51 32.506715 104.313933 186 33037ft 508kts
06-Feb-17 05:52 32.366106 104.320716 186 33019ft 503kts
06-Feb-17 05:53 32.226279 104.327847 186 32986ft 499kts
06-Feb-17 05:54 32.089029 104.334392 187 33003ft 499kts
06-Feb-17 05:55 31.949275 104.341427 186 33014ft 499kts
06-Feb-17 05:56 31.808959 104.348134 187 33025ft 509kts
06-Feb-17 05:57 31.669865 104.355030 187 32975ft 493kts
06-Feb-17 05:58 31.533771 104.361295 187 32993ft 494kts
06-Feb-17 05:59 31.398332 104.367753 187 33032ft 486kts
06-Feb-17 06:00 31.260339 104.374104 187 32965ft 506kts
06-Feb-17 06:01 31.121676 104.380064 187 32999ft 493kts
06-Feb-17 06:02 30.982468 104.385721 187 33011ft 508kts
06-Feb-17 06:03 30.842305 104.402165 174 33026ft 518kts
06-Feb-17 06:04 30.703747 104.452603 170 33023ft 524kts
06-Feb-17 06:05 30.565922 104.506242 170 33010ft 521kts
06-Feb-17 06:06 30.428068 104.558776 170 32986ft 522kts
06-Feb-17 06:07 30.289510 104.611289 170 33011ft 527kts
06-Feb-17 06:08 30.150443 104.664097 170 32977ft 521kts
06-Feb-17 06:09 30.012831 104.717209 169 33014ft 524kts
06-Feb-17 06:10 29.875158 104.771044 169 33011ft 522kts
06-Feb-17 06:11 29.737910 104.824639 169 33005ft 521kts
06-Feb-17 06:12 29.600544 104.878056 169 33004ft 522kts
06-Feb-17 06:13 29.462818 104.931360 169 32989ft 522kts
06-Feb-17 06:14 29.324689 104.984513 169 32985ft 522kts
06-Feb-17 06:15 29.187010 105.037218 169 32982ft 522kts
06-Feb-17 06:16 29.049184 105.089739 169 32985ft 522kts
06-Feb-17 06:17 28.911421 105.142091 169 32983ft 522kts
06-Feb-17 06:18 28.773687 105.194405 169 32976ft 523kts
06-Feb-17 06:19 28.635812 105.246638 169 32981ft 523kts
06-Feb-17 06:20 28.497504 105.298799 169 32980ft 523kts
06-Feb-17 06:21 28.359882 105.350442 169 32980ft 522kts
06-Feb-17 06:22 28.222043 105.402154 169 32981ft 522kts
06-Feb-17 06:23 28.086450 105.465281 162 32981ft 532kts
06-Feb-17 06:24 27.953003 105.537817 161 32979ft 532kts
06-Feb-17 06:25 27.819490 105.610809 161 32979ft 532kts
06-Feb-17 06:26 27.686125 105.683567 161 32976ft 532kts
06-Feb-17 06:27 27.552956 105.756033 162 32976ft 532kts
06-Feb-17 06:28 27.419669 105.827932 162 32969ft 532kts
06-Feb-17 06:29 27.286310 105.899759 162 32973ft 532kts
06-Feb-17 06:30 27.152664 105.971522 161 32970ft 531kts
06-Feb-17 06:31 27.026504 106.059924 139 32972ft 557kts
06-Feb-17 06:32 26.928250 106.195447 131 32967ft 562kts
06-Feb-17 06:33 26.834311 106.335235 131 32966ft 562kts
06-Feb-17 06:34 26.739966 106.474336 131 32963ft 561kts
06-Feb-17 06:35 26.645617 106.613065 131 32964ft 561kts
06-Feb-17 06:36 26.550910 106.752002 131 32964ft 561kts
06-Feb-17 06:37 26.487139 106.912462 109 32966ft 574kts
06-Feb-17 06:38 26.442357 107.082925 107 32967ft 573kts
06-Feb-17 06:39 26.398788 107.253723 107 32971ft 573kts
06-Feb-17 06:40 26.355004 107.424396 107 32972ft 570kts
06-Feb-17 06:41 26.310763 107.594361 107 32978ft 572kts
06-Feb-17 06:42 26.265195 107.765348 108 32983ft 574kts
06-Feb-17 06:43 26.219953 107.934920 107 32971ft 575kts
06-Feb-17 06:44 26.174440 108.104879 108 33004ft 574kts
06-Feb-17 06:45 26.128158 108.276167 108 33010ft 574kts
06-Feb-17 06:46 26.082725 108.446175 107 33019ft 574kts
06-Feb-17 06:47 26.038835 108.615807 107 33038ft 571kts
06-Feb-17 06:48 25.995232 108.784708 107 33025ft 567kts
06-Feb-17 06:49 25.952139 108.950754 107 32991ft 554kts
06-Feb-17 06:50 25.908180 109.117780 107 33032ft 571kts
06-Feb-17 06:51 25.863207 109.287904 107 33029ft 558kts
06-Feb-17 06:52 25.819172 109.451186 107 33098ft 558kts
06-Feb-17 06:53 25.767892 109.616511 124 33085ft 564kts
06-Feb-17 06:54 25.668467 109.749253 137 33104ft 552kts
06-Feb-17 06:55 25.567076 109.868391 137 33049ft 524kts
06-Feb-17 06:56 25.465052 109.989034 137 33081ft 553kts
06-Feb-17 06:57 25.356621 110.114696 139 33128ft 570kts
06-Feb-17 06:58 25.247034 110.236313 139 33069ft 533kts
06-Feb-17 06:59 25.143232 110.345612 144 33096ft 517kts
06-Feb-17 07:00 25.029247 110.449888 145 33091ft 548kts
06-Feb-17 07:01 24.909112 110.558652 144 33110ft 567kts
06-Feb-17 07:02 24.791621 110.665722 145 33101ft 532kts
06-Feb-17 07:03 24.677290 110.770868 143 33084ft 539kts
06-Feb-17 07:04 24.567874 110.885114 139 33090ft 545kts
06-Feb-17 07:05 24.458120 111.002899 140 33082ft 555kts
06-Feb-17 07:06 24.348811 111.120169 140 33068ft 549kts
06-Feb-17 07:07 24.242211 111.234890 140 33060ft 532kts
06-Feb-17 07:08 24.133963 111.351159 140 33085ft 556kts
06-Feb-17 07:09 24.022925 111.470614 139 33046ft 552kts
06-Feb-17 07:10 23.914025 111.587959 139 33081ft 555kts
06-Feb-17 07:11 23.804788 111.705398 140 33052ft 543kts
06-Feb-17 07:12 23.697825 111.820741 140 33032ft 543kts
06-Feb-17 07:13 23.589696 111.936426 140 33059ft 546kts
06-Feb-17 07:14 23.480978 112.052120 140 33060ft 548kts
06-Feb-17 07:15 23.372774 112.166523 140 33058ft 542kts
06-Feb-17 07:16 23.265033 112.280344 140 33052ft 538kts
06-Feb-17 07:17 23.156462 112.395048 140 33054ft 547kts
06-Feb-17 07:18 23.071777 112.530903 106 33069ft 565kts
06-Feb-17 07:19 23.052956 112.700551 95 33063ft 567kts
06-Feb-17 07:20 23.042098 112.871354 95 33063ft 568kts
06-Feb-17 07:21 23.031149 113.042373 95 33058ft 568kts
06-Feb-17 07:22 22.980020 113.197007 139 33062ft 543kts
06-Feb-17 07:23 22.849025 113.263344 170 33067ft 515kts
06-Feb-17 07:24 22.711558 113.305482 170 33071ft 514kts
06-Feb-17 07:25 22.574600 113.350147 169 33075ft 514kts
06-Feb-17 07:26 22.441469 113.395563 168 31679ft 477kts
06-Feb-17 07:27 22.320538 113.437295 167 29715ft 439kts
06-Feb-17 07:28 22.207535 113.476605 167 27608ft 418kts
06-Feb-17 07:29 22.098453 113.514433 165 25789ft 404kts
06-Feb-17 07:30 21.992945 113.551585 162 23994ft 396kts
06-Feb-17 07:31 21.892172 113.596409 158 22214ft 388kts
06-Feb-17 07:32 21.794368 113.641483 158 20418ft 377kts
06-Feb-17 07:33 21.712678 113.702781 110 18614ft 359kts
06-Feb-17 07:34 21.738031 113.793471 41 16837ft 325kts
06-Feb-17 07:35 21.805103 113.857104 33 15038ft 318kts
06-Feb-17 07:36 21.889298 113.870730 349 13239ft 311kts
06-Feb-17 07:37 21.969221 113.842528 337 11434ft 297kts
06-Feb-17 07:38 22.043922 113.806958 335 9641ft 292kts
06-Feb-17 07:39 22.095529 113.742117 298 7844ft 289kts
06-Feb-17 07:40 22.133709 113.666014 297 6051ft 289kts
06-Feb-17 07:41 22.170365 113.590185 300 4359ft 276kts
06-Feb-17 07:42 22.228341 113.581895 56 4015ft 225kts
06-Feb-17 07:43 22.244019 113.645771 79 4005ft 220kts
06-Feb-17 07:44 22.256788 113.710876 79 3613ft 208kts
06-Feb-17 07:45 22.266525 113.758946 76 2684ft 141kts
06-Feb-17 07:46 22.279079 113.799104 73 1956ft 142kts
06-Feb-17 07:47 22.292385 113.840181 73 1201ft 149kts
06-Feb-17 07:48 22.305391 113.880614 73 417ft 134kts
06-Feb-17 07:49 22.315300 113.911953 71 46ft 56kts
06-Feb-17 07:50 22.316534 113.917318 102 46ft 0kts
06-Feb-17 07:51 22.316534 113.917321 102 46ft 0kts
06-Feb-17 07:52 22.316533 113.917324 102 46ft 0kts
06-Feb-17 07:53 22.316532 113.917327 102 46ft 0kts
06-Feb-17 07:54 22.316532 113.917331 102 46ft 0kts
06-Feb-17 07:55 22.316531 113.917334 102 46ft 0kts
06-Feb-17 07:56 22.316530 113.917337 102 46ft 0kts
06-Feb-17 07:57 22.316530 113.917340 102 46ft 0kts
06-Feb-17 07:58 22.316529 113.917344 102 46ft 0kts
06-Feb-17 07:59 22.316528 113.917347 102 46ft 0kts
06-Feb-17 08:00 22.316528 113.917350 102 46ft 0kts
06-Feb-17 08:01 22.316527 113.917353 102 46ft 0kts
06-Feb-17 08:02 22.316526 113.917357 102 46ft 0kts
06-Feb-17 08:03 22.316526 113.917360 102 46ft 0kts
06-Feb-17 08:04 22.316525 113.917363 102 46ft 0kts

Navigation Log

Ident Type
Flight plan parsing failed, navigation log unavailable